Time;durP1;ratioP1;P1;durP2;ratioP2;P2;SDS_P1;SDS_P2;PMS_P1;PMS_P2;Temp;Humidity;BMP_temperature;BMP_pressure;BME280_temperature;BME280_humidity;BME280_pressure;Samples;Min_cycle;Max_cycle;Signal;HPM_P1;HPM_P2
2022/03/31 00:00:54;;;;;;;1999.90;999.90;;;;;;;;;;5032420;28;20203;-69
2022/03/31 00:03:39;;;;;;;1999.90;999.90;;;;;;;;;;5032906;28;20206;-69
2022/03/31 00:06:23;;;;;;;1999.90;999.90;;;;;;;;;;5032816;28;20230;-69
2022/03/31 00:09:10;;;;;;;1999.90;999.90;;;;;;;;;;5032188;28;20304;-69
2022/03/31 00:11:55;;;;;;;1999.90;999.90;;;;;;;;;;5032956;28;20270;-69
2022/03/31 00:14:40;;;;;;;1999.90;999.90;;;;;;;;;;5032915;28;20234;-68
2022/03/31 00:17:24;;;;;;;1999.90;999.90;;;;;;;;;;5032656;28;20222;-69
2022/03/31 00:20:11;;;;;;;1999.90;999.90;;;;;;;;;;5032004;28;20210;-69
2022/03/31 00:22:56;;;;;;;1999.90;999.90;;;;;;;;;;5032403;28;20258;-69
2022/03/31 00:25:43;;;;;;;1999.90;999.90;;;;;;;;;;5031979;28;20453;-69
2022/03/31 00:28:28;;;;;;;1999.90;999.90;;;;;;;;;;5031861;28;20206;-69
2022/03/31 00:31:13;;;;;;;1999.90;999.90;;;;;;;;;;5032546;28;20214;-69
2022/03/31 00:33:58;;;;;;;1999.90;999.90;;;;;;;;;;5031912;28;20202;-69
2022/03/31 00:36:43;;;;;;;1999.90;999.90;;;;;;;;;;5032310;28;20429;-69
2022/03/31 00:39:32;;;;;;;1999.90;999.90;;;;;;;;;;5031417;28;20206;-69
2022/03/31 00:42:17;;;;;;;1999.90;999.90;;;;;;;;;;5032416;28;20206;-69
2022/03/31 00:45:02;;;;;;;1999.90;999.90;;;;;;;;;;5031784;28;20253;-69
2022/03/31 00:47:48;;;;;;;1999.90;999.90;;;;;;;;;;5031681;28;20592;-69
2022/03/31 00:50:34;;;;;;;1999.90;999.90;;;;;;;;;;5032247;28;20250;-69
2022/03/31 00:53:19;;;;;;;1999.90;999.90;;;;;;;;;;5031856;28;20332;-69
2022/03/31 00:56:06;;;;;;;1999.90;999.90;;;;;;;;;;5012327;28;20281;-69
2022/03/31 00:58:52;;;;;;;1999.90;999.90;;;;;;;;;;5011630;28;20207;-69
2022/03/31 01:01:38;;;;;;;1999.90;999.90;;;;;;;;;;5012373;28;20337;-68
2022/03/31 01:04:23;;;;;;;1999.90;999.90;;;;;;;;;;5012417;28;20210;-69
2022/03/31 01:07:08;;;;;;;1999.90;999.90;;;;;;;;;;5011856;28;20601;-68
2022/03/31 01:09:53;;;;;;;1999.90;999.90;;;;;;;;;;5026061;28;20213;-69
2022/03/31 01:12:39;;;;;;;1999.90;999.90;;;;;;;;;;5032036;28;20326;-69
2022/03/31 01:15:25;;;;;;;1999.90;999.90;;;;;;;;;;5031833;28;20706;-69
2022/03/31 01:18:10;;;;;;;1999.90;999.90;;;;;;;;;;5030941;28;20198;-69
2022/03/31 01:20:55;;;;;;;1999.90;999.90;;;;;;;;;;5031920;28;20276;-69
2022/03/31 01:23:42;;;;;;;1999.90;999.90;;;;;;;;;;5031090;28;20299;-69
2022/03/31 01:26:26;;;;;;;1999.90;999.90;;;;;;;;;;5031473;28;20325;-69
2022/03/31 01:29:11;;;;;;;1999.90;999.90;;;;;;;;;;5031065;28;20280;-69
2022/03/31 01:31:57;;;;;;;1999.90;999.90;;;;;;;;;;5031515;28;20508;-69
2022/03/31 01:34:42;;;;;;;1999.90;999.90;;;;;;;;;;5031795;28;20205;-68
2022/03/31 01:37:27;;;;;;;1999.90;999.90;;;;;;;;;;5031687;28;20225;-69
2022/03/31 01:40:16;;;;;;;1999.90;999.90;;;;;;;;;;5011739;28;20791;-69
2022/03/31 01:43:02;;;;;;;1999.90;999.90;;;;;;;;;;5012024;28;20280;-69
2022/03/31 01:45:48;;;;;;;1999.90;999.90;;;;;;;;;;5011958;28;20226;-69
2022/03/31 01:48:33;;;;;;;1999.90;999.90;;;;;;;;;;5013850;28;20238;-69
2022/03/31 01:51:18;;;;;;;1999.90;999.90;;;;;;;;;;5015503;28;20206;-69
2022/03/31 01:54:03;;;;;;;1999.90;999.90;;;;;;;;;;5027974;28;20300;-69
2022/03/31 01:56:49;;;;;;;1999.90;999.90;;;;;;;;;;5035278;28;20723;-70
2022/03/31 01:59:35;;;;;;;1999.90;999.90;;;;;;;;;;5034620;28;20206;-69
2022/03/31 02:02:20;;;;;;;1999.90;999.90;;;;;;;;;;5034226;28;20410;-68
2022/03/31 02:05:06;;;;;;;1999.90;999.90;;;;;;;;;;5035198;28;20694;-69
2022/03/31 02:07:53;;;;;;;1999.90;999.90;;;;;;;;;;5033958;28;21018;-68
2022/03/31 02:10:38;;;;;;;1999.90;999.90;;;;;;;;;;5035201;28;20252;-69
2022/03/31 02:13:25;;;;;;;1999.90;999.90;;;;;;;;;;5034894;28;20202;-69
2022/03/31 02:16:10;;;;;;;1999.90;999.90;;;;;;;;;;5035018;28;20812;-68
2022/03/31 02:18:54;;;;;;;1999.90;999.90;;;;;;;;;;5034219;28;20226;-69
2022/03/31 02:21:40;;;;;;;1999.90;999.90;;;;;;;;;;5034416;28;20206;-69
2022/03/31 02:24:25;;;;;;;1999.90;999.90;;;;;;;;;;5034699;28;20306;-69
2022/03/31 02:27:11;;;;;;;1999.90;999.90;;;;;;;;;;5034754;28;20229;-69
2022/03/31 02:29:57;;;;;;;1999.90;999.90;;;;;;;;;;5034138;28;20214;-69
2022/03/31 02:32:43;;;;;;;1999.90;999.90;;;;;;;;;;5034135;28;20706;-69
2022/03/31 02:35:30;;;;;;;1999.90;999.90;;;;;;;;;;5034359;28;20312;-69
2022/03/31 02:38:15;;;;;;;1999.90;999.90;;;;;;;;;;5033940;28;20205;-69
2022/03/31 02:41:00;;;;;;;1999.90;999.90;;;;;;;;;;5034429;28;20202;-69
2022/03/31 02:43:45;;;;;;;1999.90;999.90;;;;;;;;;;5034625;28;20572;-69
2022/03/31 02:46:31;;;;;;;1999.90;999.90;;;;;;;;;;5034114;28;20225;-70
2022/03/31 02:49:16;;;;;;;1999.90;999.90;;;;;;;;;;5033661;28;20292;-70
2022/03/31 02:52:01;;;;;;;1999.90;999.90;;;;;;;;;;5034457;28;20347;-69
2022/03/31 02:58:00;;;;;;;1999.90;999.90;;;;;;;;;;5010293;28;20731;-68
2022/03/31 03:00:46;;;;;;;1999.90;999.90;;;;;;;;;;5033550;28;20210;-69
2022/03/31 03:03:32;;;;;;;1999.90;999.90;;;;;;;;;;5034119;28;20209;-69
2022/03/31 03:06:17;;;;;;;1999.90;999.90;;;;;;;;;;5034142;28;20711;-69
2022/03/31 03:09:02;;;;;;;1999.90;999.90;;;;;;;;;;5032213;28;20438;-69
2022/03/31 03:11:47;;;;;;;1999.90;999.90;;;;;;;;;;5034070;28;20244;-69
2022/03/31 03:14:32;;;;;;;1999.90;999.90;;;;;;;;;;5033982;28;20711;-69
2022/03/31 03:17:17;;;;;;;1999.90;999.90;;;;;;;;;;5033911;28;20345;-69
2022/03/31 03:20:04;;;;;;;1999.90;999.90;;;;;;;;;;5033332;28;20225;-68
2022/03/31 03:22:50;;;;;;;1999.90;999.90;;;;;;;;;;5033960;28;20322;-68
2022/03/31 03:25:35;;;;;;;1999.90;999.90;;;;;;;;;;5033739;28;20222;-69
2022/03/31 03:28:20;;;;;;;1999.90;999.90;;;;;;;;;;5032876;28;20217;-69
2022/03/31 03:31:06;;;;;;;1999.90;999.90;;;;;;;;;;5033740;28;20206;-68
2022/03/31 03:33:51;;;;;;;1999.90;999.90;;;;;;;;;;5033654;28;20245;-68
2022/03/31 03:36:37;;;;;;;1999.90;999.90;;;;;;;;;;5033369;28;20419;-68
2022/03/31 03:39:23;;;;;;;1999.90;999.90;;;;;;;;;;5032811;28;20702;-69
2022/03/31 03:42:08;;;;;;;1999.90;999.90;;;;;;;;;;5033235;28;20229;-69
2022/03/31 03:44:54;;;;;;;1999.90;999.90;;;;;;;;;;5028907;28;20221;-68
2022/03/31 03:47:39;;;;;;;1999.90;999.90;;;;;;;;;;5026406;28;20709;-67
2022/03/31 03:50:24;;;;;;;1999.90;999.90;;;;;;;;;;5032858;28;20201;-69
2022/03/31 03:53:10;;;;;;;1999.90;999.90;;;;;;;;;;5033295;28;20230;-69
2022/03/31 03:55:55;;;;;;;1999.90;999.90;;;;;;;;;;5033007;28;20341;-69
2022/03/31 03:58:40;;;;;;;1999.90;999.90;;;;;;;;;;5032399;28;20194;-69
2022/03/31 04:01:25;;;;;;;1999.90;999.90;;;;;;;;;;5033094;28;20711;-68
2022/03/31 04:04:10;;;;;;;1999.90;999.90;;;;;;;;;;5032941;28;20245;-69
2022/03/31 04:06:55;;;;;;;1999.90;999.90;;;;;;;;;;5032944;28;20300;-69
2022/03/31 04:09:41;;;;;;;1999.90;999.90;;;;;;;;;;5032008;28;20562;-68
2022/03/31 04:12:26;;;;;;;1999.90;999.90;;;;;;;;;;5032826;28;20278;-68
2022/03/31 04:15:13;;;;;;;1999.90;999.90;;;;;;;;;;5032500;28;20218;-68
2022/03/31 04:17:59;;;;;;;1999.90;999.90;;;;;;;;;;5031999;28;20252;-68
2022/03/31 04:20:43;;;;;;;1999.90;999.90;;;;;;;;;;5032690;28;20202;-68
2022/03/31 04:23:28;;;;;;;1999.90;999.90;;;;;;;;;;5032687;28;20213;-69
2022/03/31 04:26:14;;;;;;;1999.90;999.90;;;;;;;;;;5033419;28;20226;-68
2022/03/31 04:29:01;;;;;;;1999.90;999.90;;;;;;;;;;5037435;28;20349;-69
2022/03/31 04:31:46;;;;;;;1999.90;999.90;;;;;;;;;;5031986;28;20307;-68
2022/03/31 04:34:31;;;;;;;1999.90;999.90;;;;;;;;;;5027808;28;20214;-68
2022/03/31 04:37:16;;;;;;;1999.90;999.90;;;;;;;;;;5031499;28;20221;-69
2022/03/31 04:40:02;;;;;;;1999.90;999.90;;;;;;;;;;5031064;28;20209;-69
2022/03/31 04:42:48;;;;;;;1999.90;999.90;;;;;;;;;;5031790;28;20240;-68
2022/03/31 04:45:33;;;;;;;1999.90;999.90;;;;;;;;;;5031688;28;20279;-69
2022/03/31 04:48:18;;;;;;;1999.90;999.90;;;;;;;;;;5038643;28;20322;-68
2022/03/31 04:51:03;;;;;;;1999.90;999.90;;;;;;;;;;5034821;28;20212;-68
2022/03/31 04:53:48;;;;;;;1999.90;999.90;;;;;;;;;;5046697;28;20581;-68
2022/03/31 04:56:33;;;;;;;1999.90;999.90;;;;;;;;;;5051210;28;20241;-67
2022/03/31 04:59:20;;;;;;;1999.90;999.90;;;;;;;;;;5052167;28;20201;-66
2022/03/31 05:02:05;;;;;;;1999.90;999.90;;;;;;;;;;5053398;28;20201;-67
2022/03/31 05:04:50;;;;;;;1999.90;999.90;;;;;;;;;;5041711;28;20254;-68
2022/03/31 05:07:35;;;;;;;1999.90;999.90;;;;;;;;;;5032269;28;20193;-68
2022/03/31 05:10:20;;;;;;;1999.90;999.90;;;;;;;;;;5031648;28;20210;-70
2022/03/31 05:13:05;;;;;;;1999.90;999.90;;;;;;;;;;5031959;28;20322;-70
2022/03/31 05:15:52;;;;;;;1999.90;999.90;;;;;;;;;;5031843;28;20248;-70
2022/03/31 05:18:37;;;;;;;1999.90;999.90;;;;;;;;;;5031190;28;20205;-70
2022/03/31 05:21:22;;;;;;;1999.90;999.90;;;;;;;;;;5031637;28;20636;-70
2022/03/31 05:24:07;;;;;;;1999.90;999.90;;;;;;;;;;5036129;28;20608;-70
2022/03/31 05:26:52;;;;;;;1999.90;999.90;;;;;;;;;;5035709;28;20226;-69
2022/03/31 05:29:37;;;;;;;1999.90;999.90;;;;;;;;;;5034798;28;20224;-69
2022/03/31 05:32:24;;;;;;;1999.90;999.90;;;;;;;;;;5035930;28;20648;-69
2022/03/31 05:35:11;;;;;;;1999.90;999.90;;;;;;;;;;5035808;28;20268;-69
2022/03/31 05:37:56;;;;;;;1999.90;999.90;;;;;;;;;;5034962;28;20206;-68
2022/03/31 05:40:41;;;;;;;1999.90;999.90;;;;;;;;;;5035705;28;20280;-69
2022/03/31 05:43:26;;;;;;;1999.90;999.90;;;;;;;;;;5035698;28;20248;-68
2022/03/31 05:46:10;;;;;;;1999.90;999.90;;;;;;;;;;5035518;28;20734;-68
2022/03/31 05:48:57;;;;;;;1999.90;999.90;;;;;;;;;;5034651;28;20229;-68
2022/03/31 05:51:42;;;;;;;1999.90;999.90;;;;;;;;;;5035595;28;20291;-68
2022/03/31 05:54:28;;;;;;;1999.90;999.90;;;;;;;;;;5035490;28;20321;-68
2022/03/31 05:57:12;;;;;;;1999.90;999.90;;;;;;;;;;5035052;28;20988;-68
2022/03/31 05:59:57;;;;;;;1999.90;999.90;;;;;;;;;;5034665;28;20224;-68
2022/03/31 06:02:42;;;;;;;1999.90;999.90;;;;;;;;;;5035314;28;21094;-68
2022/03/31 06:05:29;;;;;;;1999.90;999.90;;;;;;;;;;5032884;28;20239;-68
2022/03/31 06:08:14;;;;;;;1999.90;999.90;;;;;;;;;;5034006;28;20239;-68
2022/03/31 06:10:59;;;;;;;1999.90;999.90;;;;;;;;;;5034608;28;20208;-69
2022/03/31 06:13:43;;;;;;;1999.90;999.90;;;;;;;;;;5032742;28;20426;-68
2022/03/31 06:16:28;;;;;;;1999.90;999.90;;;;;;;;;;5015284;28;20424;-68
2022/03/31 06:19:13;;;;;;;1999.90;999.90;;;;;;;;;;5028420;28;20481;-68
2022/03/31 06:21:59;;;;;;;1999.90;999.90;;;;;;;;;;5034968;28;20684;-68
2022/03/31 06:24:44;;;;;;;1999.90;999.90;;;;;;;;;;5034537;28;20210;-68
2022/03/31 06:27:29;;;;;;;1999.90;999.90;;;;;;;;;;5034069;28;20230;-69
2022/03/31 06:30:15;;;;;;;1999.90;999.90;;;;;;;;;;5030437;28;20555;-68
2022/03/31 06:33:00;;;;;;;1999.90;999.90;;;;;;;;;;5029180;28;20684;-66
2022/03/31 06:35:45;;;;;;;1999.90;999.90;;;;;;;;;;5014919;28;20253;-69
2022/03/31 06:38:31;;;;;;;1999.90;999.90;;;;;;;;;;5023645;28;20210;-68
2022/03/31 06:41:17;;;;;;;1999.90;999.90;;;;;;;;;;5034649;28;20268;-68
2022/03/31 06:44:02;;;;;;;1999.90;999.90;;;;;;;;;;5034235;28;20280;-68
2022/03/31 06:46:48;;;;;;;1999.90;999.90;;;;;;;;;;5037815;28;20251;-68
2022/03/31 06:49:34;;;;;;;1999.90;999.90;;;;;;;;;;5050552;28;20731;-68
2022/03/31 06:52:18;;;;;;;1999.90;999.90;;;;;;;;;;5032321;28;20445;-68
2022/03/31 06:55:05;;;;;;;1999.90;999.90;;;;;;;;;;5034231;28;20202;-68
2022/03/31 06:57:51;;;;;;;1999.90;999.90;;;;;;;;;;5032882;28;20353;-68
2022/03/31 07:00:36;;;;;;;1999.90;999.90;;;;;;;;;;5033307;28;20741;-69
2022/03/31 07:03:20;;;;;;;1999.90;999.90;;;;;;;;;;5039489;28;20212;-68
2022/03/31 07:06:06;;;;;;;1999.90;999.90;;;;;;;;;;5033472;28;20229;-68
2022/03/31 07:08:51;;;;;;;1999.90;999.90;;;;;;;;;;5032618;28;20724;-68
2022/03/31 07:11:38;;;;;;;1999.90;999.90;;;;;;;;;;5051047;28;20252;-68
2022/03/31 07:14:23;;;;;;;1999.90;999.90;;;;;;;;;;5053991;28;20235;-67
2022/03/31 07:17:08;;;;;;;1999.90;999.90;;;;;;;;;;5052818;28;20618;-68
2022/03/31 07:19:52;;;;;;;1999.90;999.90;;;;;;;;;;5030772;28;20245;-68
2022/03/31 07:22:43;;;;;;;1999.90;999.90;;;;;;;;;;5033855;28;20245;-69
2022/03/31 07:25:28;;;;;;;1999.90;999.90;;;;;;;;;;5033804;28;20356;-68
2022/03/31 07:28:15;;;;;;;1999.90;999.90;;;;;;;;;;5032771;28;20210;-69
2022/03/31 07:31:00;;;;;;;1999.90;999.90;;;;;;;;;;5033762;28;20209;-69
2022/03/31 07:33:45;;;;;;;1999.90;999.90;;;;;;;;;;5033733;28;20582;-69
2022/03/31 07:36:30;;;;;;;1999.90;999.90;;;;;;;;;;5021429;28;20480;-69
2022/03/31 07:39:15;;;;;;;1999.90;999.90;;;;;;;;;;5028420;28;20320;-69
2022/03/31 07:42:00;;;;;;;1999.90;999.90;;;;;;;;;;5025983;28;20206;-69
2022/03/31 07:44:46;;;;;;;1999.90;999.90;;;;;;;;;;5021045;28;20624;-70
2022/03/31 07:47:31;;;;;;;1999.90;999.90;;;;;;;;;;5015769;28;20205;-69
2022/03/31 07:50:18;;;;;;;1999.90;999.90;;;;;;;;;;5025987;28;20597;-69
2022/03/31 07:53:03;;;;;;;1999.90;999.90;;;;;;;;;;5016784;28;20232;-70
2022/03/31 07:55:48;;;;;;;1999.90;999.90;;;;;;;;;;5015872;28;20768;-69
2022/03/31 07:58:34;;;;;;;1999.90;999.90;;;;;;;;;;5025327;28;20198;-70
2022/03/31 08:01:20;;;;;;;1999.90;999.90;;;;;;;;;;5015204;28;20206;-70
2022/03/31 08:04:06;;;;;;;1999.90;999.90;;;;;;;;;;5027798;28;20210;-70
2022/03/31 08:06:51;;;;;;;1999.90;999.90;;;;;;;;;;5029135;28;20611;-69
2022/03/31 08:09:36;;;;;;;1999.90;999.90;;;;;;;;;;5026494;28;20210;-68
2022/03/31 08:12:21;;;;;;;1999.90;999.90;;;;;;;;;;5017910;28;20257;-70
2022/03/31 08:15:06;;;;;;;1999.90;999.90;;;;;;;;;;5024022;28;20594;-68
2022/03/31 08:17:53;;;;;;;1999.90;999.90;;;;;;;;;;5021785;28;20202;-70
2022/03/31 08:20:38;;;;;;;1999.90;999.90;;;;;;;;;;5030450;28;20333;-70
2022/03/31 08:23:23;;;;;;;1999.90;999.90;;;;;;;;;;5019098;28;20222;-69
2022/03/31 08:26:08;;;;;;;1999.90;999.90;;;;;;;;;;5031605;28;20483;-70
2022/03/31 08:28:53;;;;;;;1999.90;999.90;;;;;;;;;;5031107;28;20225;-70
2022/03/31 08:31:38;;;;;;;1999.90;999.90;;;;;;;;;;5031634;28;20230;-70
2022/03/31 08:34:24;;;;;;;1999.90;999.90;;;;;;;;;;5032285;28;20273;-70
2022/03/31 08:37:09;;;;;;;1999.90;999.90;;;;;;;;;;5032193;28;20369;-70
2022/03/31 08:39:54;;;;;;;1999.90;999.90;;;;;;;;;;5011951;28;20203;-69
2022/03/31 08:42:39;;;;;;;1999.90;999.90;;;;;;;;;;5012573;28;20210;-69
2022/03/31 08:45:24;;;;;;;1999.90;999.90;;;;;;;;;;5012436;28;20700;-69
2022/03/31 08:48:09;;;;;;;1999.90;999.90;;;;;;;;;;5011793;28;20756;-69
2022/03/31 08:50:56;;;;;;;1999.90;999.90;;;;;;;;;;5012106;28;20341;-68
2022/03/31 08:53:41;;;;;;;1999.90;999.90;;;;;;;;;;5031325;28;20696;-69
2022/03/31 08:56:26;;;;;;;1999.90;999.90;;;;;;;;;;5030998;28;20280;-69
2022/03/31 08:59:13;;;;;;;1999.90;999.90;;;;;;;;;;5029160;28;20604;-69
2022/03/31 09:01:58;;;;;;;1999.90;999.90;;;;;;;;;;5031522;28;20711;-69
2022/03/31 09:04:42;;;;;;;1999.90;999.90;;;;;;;;;;5031736;28;20582;-69
2022/03/31 09:07:29;;;;;;;1999.90;999.90;;;;;;;;;;5031939;28;20226;-69
2022/03/31 09:10:25;;;;;;;1999.90;999.90;;;;;;;;;;5015592;28;20218;-69
2022/03/31 09:13:21;;;;;;;1999.90;999.90;;;;;;;;;;5012141;28;20203;-69
2022/03/31 09:16:08;;;;;;;1999.90;999.90;;;;;;;;;;5012158;28;20254;-69
2022/03/31 09:18:59;;;;;;;1999.90;999.90;;;;;;;;;;5011303;28;20206;-70
2022/03/31 09:21:51;;;;;;;1999.90;999.90;;;;;;;;;;5022626;28;20587;-68
2022/03/31 09:24:39;;;;;;;1999.90;999.90;;;;;;;;;;5031712;28;20210;-70
2022/03/31 09:27:26;;;;;;;1999.90;999.90;;;;;;;;;;5031709;28;20337;-70
2022/03/31 09:30:11;;;;;;;1999.90;999.90;;;;;;;;;;5030195;28;20896;-69
2022/03/31 09:32:56;;;;;;;1999.90;999.90;;;;;;;;;;5031634;28;20202;-68
2022/03/31 09:35:41;;;;;;;1999.90;999.90;;;;;;;;;;5031709;28;20584;-69
2022/03/31 09:38:26;;;;;;;1999.90;999.90;;;;;;;;;;5030619;28;20214;-69
2022/03/31 09:41:20;;;;;;;1999.90;999.90;;;;;;;;;;5031506;28;20250;-69
2022/03/31 09:44:06;;;;;;;1999.90;999.90;;;;;;;;;;5030377;28;20284;-69
2022/03/31 09:46:52;;;;;;;1999.90;999.90;;;;;;;;;;5027520;28;20725;-69
2022/03/31 09:49:37;;;;;;;1999.90;999.90;;;;;;;;;;5022735;28;20217;-69
2022/03/31 09:52:23;;;;;;;1999.90;999.90;;;;;;;;;;5031507;28;20209;-69
2022/03/31 09:55:08;;;;;;;1999.90;999.90;;;;;;;;;;5023270;28;20221;-69
2022/03/31 09:57:57;;;;;;;1999.90;999.90;;;;;;;;;;5011056;28;20210;-69
2022/03/31 10:00:43;;;;;;;1999.90;999.90;;;;;;;;;;5011416;28;20776;-69
2022/03/31 10:03:28;;;;;;;1999.90;999.90;;;;;;;;;;5019776;28;20234;-70
2022/03/31 10:06:13;;;;;;;1999.90;999.90;;;;;;;;;;5011841;28;20227;-68
2022/03/31 10:08:59;;;;;;;1999.90;999.90;;;;;;;;;;5012720;28;20304;-70
2022/03/31 10:11:45;;;;;;;1999.90;999.90;;;;;;;;;;5032460;28;20274;-70
2022/03/31 10:14:35;;;;;;;1999.90;999.90;;;;;;;;;;5034614;28;20214;-70
2022/03/31 10:17:25;;;;;;;1999.90;999.90;;;;;;;;;;5034990;28;20578;-70
2022/03/31 10:20:12;;;;;;;1999.90;999.90;;;;;;;;;;5020584;28;20280;-69
2022/03/31 10:26:00;;;;;;;1999.90;999.90;;;;;;;;;;5014995;28;20253;-67
2022/03/31 10:28:53;;;;;;;1999.90;999.90;;;;;;;;;;5029743;28;20291;-69
2022/03/31 10:31:40;;;;;;;1999.90;999.90;;;;;;;;;;5034693;28;20223;-69
2022/03/31 10:34:35;;;;;;;1999.90;999.90;;;;;;;;;;5034142;28;20205;-70
2022/03/31 10:37:32;;;;;;;1999.90;999.90;;;;;;;;;;5034613;28;20269;-68
2022/03/31 10:40:27;;;;;;;1999.90;999.90;;;;;;;;;;5034333;28;20676;-69
2022/03/31 10:43:19;;;;;;;1999.90;999.90;;;;;;;;;;5034210;28;20337;-70
2022/03/31 10:46:14;;;;;;;1999.90;999.90;;;;;;;;;;5034308;28;20225;-69
2022/03/31 10:49:04;;;;;;;1999.90;999.90;;;;;;;;;;5033600;28;20696;-68
2022/03/31 10:51:48;;;;;;;1999.90;999.90;;;;;;;;;;5034907;28;20198;-70
2022/03/31 10:54:34;;;;;;;1999.90;999.90;;;;;;;;;;5034386;28;20213;-70
2022/03/31 10:57:19;;;;;;;1999.90;999.90;;;;;;;;;;5034060;28;20720;-68
2022/03/31 11:00:07;;;;;;;1999.90;999.90;;;;;;;;;;5033847;28;20758;-69
2022/03/31 11:02:55;;;;;;;1999.90;999.90;;;;;;;;;;5034018;28;20579;-69
2022/03/31 11:05:42;;;;;;;1999.90;999.90;;;;;;;;;;5032353;28;20415;-69
2022/03/31 11:08:27;;;;;;;1999.90;999.90;;;;;;;;;;5033295;28;20211;-70
2022/03/31 11:11:19;;;;;;;1999.90;999.90;;;;;;;;;;5033546;28;20273;-69
2022/03/31 11:14:09;;;;;;;1999.90;999.90;;;;;;;;;;5033742;28;20205;-69
2022/03/31 11:16:54;;;;;;;1999.90;999.90;;;;;;;;;;5032877;28;20230;-70
2022/03/31 11:19:39;;;;;;;1999.90;999.90;;;;;;;;;;5032037;28;20201;-68
2022/03/31 11:22:27;;;;;;;1999.90;999.90;;;;;;;;;;5033790;28;20205;-69
2022/03/31 11:25:12;;;;;;;1999.90;999.90;;;;;;;;;;5033682;28;20280;-69
2022/03/31 11:27:58;;;;;;;1999.90;999.90;;;;;;;;;;5030950;28;20260;-68
2022/03/31 11:30:45;;;;;;;1999.90;999.90;;;;;;;;;;5021800;28;20230;-68
2022/03/31 11:33:36;;;;;;;1999.90;999.90;;;;;;;;;;5013938;28;20210;-69
2022/03/31 11:36:21;;;;;;;1999.90;999.90;;;;;;;;;;5012896;28;20881;-69
2022/03/31 11:39:07;;;;;;;1999.90;999.90;;;;;;;;;;5017601;28;20289;-70
2022/03/31 11:41:53;;;;;;;1999.90;999.90;;;;;;;;;;5033477;28;20205;-70
2022/03/31 11:44:41;;;;;;;1999.90;999.90;;;;;;;;;;5032620;28;20703;-70
2022/03/31 11:47:27;;;;;;;1999.90;999.90;;;;;;;;;;5033184;28;20226;-69
2022/03/31 11:50:12;;;;;;;1999.90;999.90;;;;;;;;;;5033054;28;20221;-69
2022/03/31 11:52:57;;;;;;;1999.90;999.90;;;;;;;;;;5036010;28;20235;-69
2022/03/31 11:55:44;;;;;;;1999.90;999.90;;;;;;;;;;5032973;28;20281;-69
2022/03/31 11:58:33;;;;;;;1999.90;999.90;;;;;;;;;;5032053;28;20297;-69
2022/03/31 12:01:20;;;;;;;1999.90;999.90;;;;;;;;;;5033022;28;20198;-69
2022/03/31 12:04:07;;;;;;;1999.90;999.90;;;;;;;;;;5032635;28;20329;-70
2022/03/31 12:06:53;;;;;;;1999.90;999.90;;;;;;;;;;5032735;28;20378;-70
2022/03/31 12:09:39;;;;;;;1999.90;999.90;;;;;;;;;;5031970;28;20210;-69
2022/03/31 12:12:26;;;;;;;1999.90;999.90;;;;;;;;;;5032600;28;20272;-69
2022/03/31 12:15:11;;;;;;;1999.90;999.90;;;;;;;;;;5032706;28;20574;-69
2022/03/31 12:18:00;;;;;;;1999.90;999.90;;;;;;;;;;5031892;28;20218;-69
2022/03/31 12:20:46;;;;;;;1999.90;999.90;;;;;;;;;;5032681;28;20751;-69
2022/03/31 12:23:32;;;;;;;1999.90;999.90;;;;;;;;;;5032044;28;20218;-69
2022/03/31 12:26:19;;;;;;;1999.90;999.90;;;;;;;;;;5032484;28;20225;-69
2022/03/31 12:29:15;;;;;;;1999.90;999.90;;;;;;;;;;5031099;28;20296;-69
2022/03/31 12:32:01;;;;;;;1999.90;999.90;;;;;;;;;;5031155;28;20218;-70
2022/03/31 12:34:53;;;;;;;1999.90;999.90;;;;;;;;;;5031665;28;20210;-70
2022/03/31 12:37:39;;;;;;;1999.90;999.90;;;;;;;;;;5031978;28;20568;-69
2022/03/31 12:40:25;;;;;;;1999.90;999.90;;;;;;;;;;5031120;28;20560;-70
2022/03/31 12:43:10;;;;;;;1999.90;999.90;;;;;;;;;;5032147;28;20202;-68
2022/03/31 12:45:57;;;;;;;1999.90;999.90;;;;;;;;;;5031591;28;20233;-70
2022/03/31 12:48:53;;;;;;;1999.90;999.90;;;;;;;;;;5031452;28;20202;-69
2022/03/31 12:51:42;;;;;;;1999.90;999.90;;;;;;;;;;5031914;28;20224;-69
2022/03/31 12:54:28;;;;;;;1999.90;999.90;;;;;;;;;;5031884;28;20206;-70
2022/03/31 12:57:14;;;;;;;1999.90;999.90;;;;;;;;;;5031258;28;20241;-69
2022/03/31 13:00:00;;;;;;;1999.90;999.90;;;;;;;;;;5031461;28;20296;-69
2022/03/31 13:02:47;;;;;;;1999.90;999.90;;;;;;;;;;5031938;28;20623;-69
2022/03/31 13:05:32;;;;;;;1999.90;999.90;;;;;;;;;;5027038;28;20312;-70
2022/03/31 13:08:18;;;;;;;1999.90;999.90;;;;;;;;;;5011641;28;20206;-70
2022/03/31 13:11:03;;;;;;;1999.90;999.90;;;;;;;;;;5028159;28;20512;-70
2022/03/31 13:13:48;;;;;;;1999.90;999.90;;;;;;;;;;5031917;28;20284;-69
2022/03/31 13:16:33;;;;;;;1999.90;999.90;;;;;;;;;;5031415;28;20221;-69
2022/03/31 13:19:19;;;;;;;1999.90;999.90;;;;;;;;;;5030858;28;20696;-69
2022/03/31 13:22:05;;;;;;;1999.90;999.90;;;;;;;;;;5031773;28;20210;-69
2022/03/31 13:24:51;;;;;;;1999.90;999.90;;;;;;;;;;5031760;28;20202;-69
2022/03/31 13:27:37;;;;;;;1999.90;999.90;;;;;;;;;;5031323;28;20280;-69
2022/03/31 13:30:22;;;;;;;1999.90;999.90;;;;;;;;;;5031200;28;20226;-69
2022/03/31 13:33:07;;;;;;;1999.90;999.90;;;;;;;;;;5030993;28;20640;-70
2022/03/31 13:35:54;;;;;;;1999.90;999.90;;;;;;;;;;5011906;28;20223;-68
2022/03/31 13:38:39;;;;;;;1999.90;999.90;;;;;;;;;;5011264;28;20708;-70
2022/03/31 13:41:24;;;;;;;1999.90;999.90;;;;;;;;;;5018841;28;20205;-69
2022/03/31 13:44:10;;;;;;;1999.90;999.90;;;;;;;;;;5034025;28;20232;-69
2022/03/31 13:46:55;;;;;;;1999.90;999.90;;;;;;;;;;5035152;28;20272;-69
2022/03/31 13:49:41;;;;;;;1999.90;999.90;;;;;;;;;;5033858;28;20209;-69
2022/03/31 13:52:27;;;;;;;1999.90;999.90;;;;;;;;;;5035506;28;20206;-69
2022/03/31 13:55:12;;;;;;;1999.90;999.90;;;;;;;;;;5035305;28;20709;-69
2022/03/31 14:01:10;;;;;;;1999.90;999.90;;;;;;;;;;5035295;28;20744;-69
2022/03/31 14:03:56;;;;;;;1999.90;999.90;;;;;;;;;;5034913;28;20253;-69
2022/03/31 14:06:41;;;;;;;1999.90;999.90;;;;;;;;;;5034137;28;20260;-68
2022/03/31 14:09:28;;;;;;;1999.90;999.90;;;;;;;;;;5033663;28;20205;-69
2022/03/31 14:12:13;;;;;;;1999.90;999.90;;;;;;;;;;5023340;28;20304;-69
2022/03/31 14:14:58;;;;;;;1999.90;999.90;;;;;;;;;;5033869;28;20402;-70
2022/03/31 14:17:43;;;;;;;1999.90;999.90;;;;;;;;;;5035996;28;20688;-70
2022/03/31 14:20:28;;;;;;;1999.90;999.90;;;;;;;;;;5034732;28;20281;-70
2022/03/31 14:23:13;;;;;;;1999.90;999.90;;;;;;;;;;5017225;28;20314;-70
2022/03/31 14:25:59;;;;;;;1999.90;999.90;;;;;;;;;;5014980;28;20798;-69
2022/03/31 14:28:45;;;;;;;1999.90;999.90;;;;;;;;;;5014519;28;20215;-70
2022/03/31 14:31:30;;;;;;;1999.90;999.90;;;;;;;;;;5014775;28;20226;-69
2022/03/31 14:34:16;;;;;;;1999.90;999.90;;;;;;;;;;5035871;28;20278;-69
2022/03/31 14:37:01;;;;;;;1999.90;999.90;;;;;;;;;;5051289;28;20241;-69
2022/03/31 14:39:46;;;;;;;1999.90;999.90;;;;;;;;;;5040021;28;20197;-70
2022/03/31 14:42:33;;;;;;;1999.90;999.90;;;;;;;;;;5033805;28;20296;-69
2022/03/31 14:45:18;;;;;;;1999.90;999.90;;;;;;;;;;5033033;28;20532;-69
2022/03/31 14:48:07;;;;;;;1999.90;999.90;;;;;;;;;;5032685;28;20315;-69
2022/03/31 14:50:52;;;;;;;1999.90;999.90;;;;;;;;;;5033827;28;20214;-69
2022/03/31 14:53:38;;;;;;;1999.90;999.90;;;;;;;;;;5052178;28;20583;-67
2022/03/31 14:56:23;;;;;;;1999.90;999.90;;;;;;;;;;5052236;28;20236;-67
2022/03/31 14:59:10;;;;;;;1999.90;999.90;;;;;;;;;;5051055;28;20703;-69
2022/03/31 15:01:55;;;;;;;1999.90;999.90;;;;;;;;;;5051937;28;20331;-70
2022/03/31 15:04:40;;;;;;;1999.90;999.90;;;;;;;;;;5052312;28;20209;-70
2022/03/31 15:07:27;;;;;;;1999.90;999.90;;;;;;;;;;5051919;28;20233;-68
2022/03/31 15:16:20;;;;;;;1999.90;999.90;;;;;;;;;;5026966;28;20221;-68
2022/03/31 15:19:05;;;;;;;1999.90;999.90;;;;;;;;;;5033032;28;20314;-67
2022/03/31 15:21:50;;;;;;;1999.90;999.90;;;;;;;;;;5033923;28;20210;-68
2022/03/31 15:24:36;;;;;;;1999.90;999.90;;;;;;;;;;5033765;28;20680;-69
2022/03/31 15:27:21;;;;;;;1999.90;999.90;;;;;;;;;;5033514;28;20675;-69
2022/03/31 15:30:07;;;;;;;1999.90;999.90;;;;;;;;;;5033404;28;20201;-68
2022/03/31 15:32:53;;;;;;;1999.90;999.90;;;;;;;;;;5033549;28;20321;-68
2022/03/31 15:35:38;;;;;;;1999.90;999.90;;;;;;;;;;5032939;28;20221;-69
2022/03/31 15:38:24;;;;;;;1999.90;999.90;;;;;;;;;;5032654;28;20324;-69
2022/03/31 15:41:08;;;;;;;1999.90;999.90;;;;;;;;;;5033454;28;20210;-69